sensor_id;sensor_type;location;lat;lon;timestamp;P1;durP1;ratioP1;P2;durP2;ratioP2
26038;SDS011;13815;52.374;4.882;2022-07-23T00:01:57;24.05;;;21.55;;
26038;SDS011;13815;52.374;4.882;2022-07-23T00:04:22;24.48;;;21.88;;
26038;SDS011;13815;52.374;4.882;2022-07-23T00:06:48;24.52;;;21.92;;
26038;SDS011;13815;52.374;4.882;2022-07-23T00:09:13;25.15;;;22.45;;
26038;SDS011;13815;52.374;4.882;2022-07-23T00:11:38;26.30;;;23.30;;
26038;SDS011;13815;52.374;4.882;2022-07-23T00:14:04;25.90;;;23.10;;
26038;SDS011;13815;52.374;4.882;2022-07-23T00:16:29;25.55;;;22.85;;
26038;SDS011;13815;52.374;4.882;2022-07-23T00:18:54;25.35;;;22.65;;
26038;SDS011;13815;52.374;4.882;2022-07-23T00:21:20;24.95;;;22.35;;
26038;SDS011;13815;52.374;4.882;2022-07-23T00:23:45;25.27;;;22.58;;
26038;SDS011;13815;52.374;4.882;2022-07-23T00:26:11;25.13;;;22.45;;
26038;SDS011;13815;52.374;4.882;2022-07-23T00:28:36;25.05;;;22.35;;
26038;SDS011;13815;52.374;4.882;2022-07-23T00:31:02;26.15;;;23.35;;
26038;SDS011;13815;52.374;4.882;2022-07-23T00:33:27;26.80;;;23.70;;
26038;SDS011;13815;52.374;4.882;2022-07-23T00:35:52;26.35;;;23.48;;
26038;SDS011;13815;52.374;4.882;2022-07-23T00:38:18;26.00;;;23.20;;
26038;SDS011;13815;52.374;4.882;2022-07-23T00:40:43;25.95;;;23.15;;
26038;SDS011;13815;52.374;4.882;2022-07-23T00:43:09;25.63;;;22.60;;
26038;SDS011;13815;52.374;4.882;2022-07-23T00:45:34;26.77;;;23.13;;
26038;SDS011;13815;52.374;4.882;2022-07-23T00:48:01;27.02;;;23.60;;
26038;SDS011;13815;52.374;4.882;2022-07-23T00:50:26;25.50;;;22.70;;
26038;SDS011;13815;52.374;4.882;2022-07-23T00:52:52;26.10;;;23.30;;
26038;SDS011;13815;52.374;4.882;2022-07-23T00:55:18;25.60;;;22.80;;
26038;SDS011;13815;52.374;4.882;2022-07-23T00:57:43;25.60;;;22.90;;
26038;SDS011;13815;52.374;4.882;2022-07-23T01:00:10;22.60;;;20.20;;
26038;SDS011;13815;52.374;4.882;2022-07-23T01:02:37;23.35;;;20.85;;
26038;SDS011;13815;52.374;4.882;2022-07-23T01:05:03;21.85;;;19.55;;
26038;SDS011;13815;52.374;4.882;2022-07-23T01:07:28;22.27;;;19.98;;
26038;SDS011;13815;52.374;4.882;2022-07-23T01:09:54;22.15;;;19.65;;
26038;SDS011;13815;52.374;4.882;2022-07-23T01:12:20;21.45;;;19.25;;
26038;SDS011;13815;52.374;4.882;2022-07-23T01:14:53;21.80;;;19.50;;
26038;SDS011;13815;52.374;4.882;2022-07-23T01:17:27;22.30;;;19.90;;
26038;SDS011;13815;52.374;4.882;2022-07-23T01:19:53;22.10;;;19.80;;
26038;SDS011;13815;52.374;4.882;2022-07-23T01:22:18;22.50;;;20.10;;
26038;SDS011;13815;52.374;4.882;2022-07-23T01:24:45;22.40;;;20.00;;
26038;SDS011;13815;52.374;4.882;2022-07-23T01:27:11;22.70;;;20.20;;
26038;SDS011;13815;52.374;4.882;2022-07-23T01:29:37;22.20;;;19.80;;
26038;SDS011;13815;52.374;4.882;2022-07-23T01:32:03;22.60;;;20.08;;
26038;SDS011;13815;52.374;4.882;2022-07-23T01:34:28;23.42;;;20.63;;
26038;SDS011;13815;52.374;4.882;2022-07-23T01:36:54;22.38;;;19.98;;
26038;SDS011;13815;52.374;4.882;2022-07-23T01:39:19;22.33;;;19.92;;
26038;SDS011;13815;52.374;4.882;2022-07-23T01:41:45;22.15;;;19.85;;
26038;SDS011;13815;52.374;4.882;2022-07-23T01:44:11;21.35;;;19.25;;
26038;SDS011;13815;52.374;4.882;2022-07-23T01:46:37;21.27;;;19.17;;
26038;SDS011;13815;52.374;4.882;2022-07-23T01:49:03;21.40;;;19.20;;
26038;SDS011;13815;52.374;4.882;2022-07-23T01:51:28;21.33;;;19.23;;
26038;SDS011;13815;52.374;4.882;2022-07-23T01:53:54;21.15;;;19.05;;
26038;SDS011;13815;52.374;4.882;2022-07-23T01:56:19;21.08;;;18.98;;
26038;SDS011;13815;52.374;4.882;2022-07-23T01:58:45;20.88;;;18.88;;
26038;SDS011;13815;52.374;4.882;2022-07-23T02:01:11;21.73;;;19.63;;
26038;SDS011;13815;52.374;4.882;2022-07-23T02:03:37;22.80;;;20.50;;
26038;SDS011;13815;52.374;4.882;2022-07-23T02:06:02;23.95;;;21.55;;
26038;SDS011;13815;52.374;4.882;2022-07-23T02:08:28;23.58;;;21.27;;
26038;SDS011;13815;52.374;4.882;2022-07-23T02:10:53;23.90;;;21.50;;
26038;SDS011;13815;52.374;4.882;2022-07-23T02:13:18;23.65;;;21.30;;
26038;SDS011;13815;52.374;4.882;2022-07-23T02:15:45;23.95;;;21.55;;
26038;SDS011;13815;52.374;4.882;2022-07-23T02:18:11;23.42;;;21.13;;
26038;SDS011;13815;52.374;4.882;2022-07-23T02:20:37;23.00;;;20.70;;
26038;SDS011;13815;52.374;4.882;2022-07-23T02:23:03;22.70;;;20.50;;
26038;SDS011;13815;52.374;4.882;2022-07-23T02:25:29;23.15;;;20.92;;
26038;SDS011;13815;52.374;4.882;2022-07-23T02:27:54;22.92;;;20.73;;
26038;SDS011;13815;52.374;4.882;2022-07-23T02:30:20;22.75;;;20.55;;
26038;SDS011;13815;52.374;4.882;2022-07-23T02:32:45;22.75;;;20.55;;
26038;SDS011;13815;52.374;4.882;2022-07-23T02:35:11;22.40;;;20.30;;
26038;SDS011;13815;52.374;4.882;2022-07-23T02:37:36;22.77;;;20.58;;
26038;SDS011;13815;52.374;4.882;2022-07-23T02:40:02;21.95;;;19.88;;
26038;SDS011;13815;52.374;4.882;2022-07-23T02:42:27;23.13;;;20.92;;
26038;SDS011;13815;52.374;4.882;2022-07-23T02:44:53;22.60;;;20.40;;
26038;SDS011;13815;52.374;4.882;2022-07-23T02:47:18;22.10;;;20.05;;
26038;SDS011;13815;52.374;4.882;2022-07-23T02:49:43;21.88;;;19.88;;
26038;SDS011;13815;52.374;4.882;2022-07-23T02:52:09;22.70;;;20.50;;
26038;SDS011;13815;52.374;4.882;2022-07-23T02:54:37;22.25;;;20.25;;
26038;SDS011;13815;52.374;4.882;2022-07-23T02:57:03;21.40;;;19.50;;
26038;SDS011;13815;52.374;4.882;2022-07-23T02:59:29;20.73;;;18.90;;
26038;SDS011;13815;52.374;4.882;2022-07-23T03:01:54;21.00;;;19.25;;
26038;SDS011;13815;52.374;4.882;2022-07-23T03:04:20;19.77;;;18.20;;
26038;SDS011;13815;52.374;4.882;2022-07-23T03:06:45;19.30;;;17.80;;
26038;SDS011;13815;52.374;4.882;2022-07-23T03:09:11;18.48;;;17.17;;
26038;SDS011;13815;52.374;4.882;2022-07-23T03:11:36;17.15;;;16.05;;
26038;SDS011;13815;52.374;4.882;2022-07-23T03:14:02;16.70;;;15.70;;
26038;SDS011;13815;52.374;4.882;2022-07-23T03:16:27;16.65;;;15.65;;
26038;SDS011;13815;52.374;4.882;2022-07-23T03:18:52;17.48;;;16.23;;
26038;SDS011;13815;52.374;4.882;2022-07-23T03:21:18;16.55;;;15.55;;
26038;SDS011;13815;52.374;4.882;2022-07-23T03:23:43;17.15;;;16.02;;
26038;SDS011;13815;52.374;4.882;2022-07-23T03:26:08;17.25;;;16.05;;
26038;SDS011;13815;52.374;4.882;2022-07-23T03:28:34;17.33;;;16.23;;
26038;SDS011;13815;52.374;4.882;2022-07-23T03:30:59;17.80;;;16.50;;
26038;SDS011;13815;52.374;4.882;2022-07-23T03:33:24;17.92;;;16.55;;
26038;SDS011;13815;52.374;4.882;2022-07-23T03:35:50;17.23;;;16.13;;
26038;SDS011;13815;52.374;4.882;2022-07-23T03:38:15;17.45;;;16.25;;
26038;SDS011;13815;52.374;4.882;2022-07-23T03:40:41;17.17;;;15.95;;
26038;SDS011;13815;52.374;4.882;2022-07-23T03:43:06;16.67;;;15.68;;
26038;SDS011;13815;52.374;4.882;2022-07-23T03:45:32;17.60;;;16.40;;
26038;SDS011;13815;52.374;4.882;2022-07-23T03:47:58;17.80;;;16.50;;
26038;SDS011;13815;52.374;4.882;2022-07-23T03:50:23;16.70;;;15.70;;
26038;SDS011;13815;52.374;4.882;2022-07-23T03:52:48;16.30;;;15.30;;
26038;SDS011;13815;52.374;4.882;2022-07-23T03:55:14;16.05;;;15.15;;
26038;SDS011;13815;52.374;4.882;2022-07-23T03:57:40;16.38;;;15.48;;
26038;SDS011;13815;52.374;4.882;2022-07-23T04:00:06;16.33;;;15.25;;
26038;SDS011;13815;52.374;4.882;2022-07-23T04:02:34;16.60;;;15.50;;
26038;SDS011;13815;52.374;4.882;2022-07-23T04:04:59;15.10;;;14.40;;
26038;SDS011;13815;52.374;4.882;2022-07-23T04:07:25;15.02;;;14.15;;
26038;SDS011;13815;52.374;4.882;2022-07-23T04:09:51;13.63;;;13.02;;
26038;SDS011;13815;52.374;4.882;2022-07-23T04:12:16;13.10;;;12.60;;
26038;SDS011;13815;52.374;4.882;2022-07-23T04:14:42;13.65;;;12.95;;
26038;SDS011;13815;52.374;4.882;2022-07-23T04:17:07;13.60;;;13.00;;
26038;SDS011;13815;52.374;4.882;2022-07-23T04:19:32;13.20;;;12.70;;
26038;SDS011;13815;52.374;4.882;2022-07-23T04:21:58;14.80;;;14.00;;
26038;SDS011;13815;52.374;4.882;2022-07-23T04:24:23;13.80;;;13.20;;
26038;SDS011;13815;52.374;4.882;2022-07-23T04:26:49;14.40;;;13.70;;
26038;SDS011;13815;52.374;4.882;2022-07-23T04:29:14;13.95;;;13.35;;
26038;SDS011;13815;52.374;4.882;2022-07-23T04:31:39;14.20;;;13.50;;
26038;SDS011;13815;52.374;4.882;2022-07-23T04:34:05;13.38;;;12.75;;
26038;SDS011;13815;52.374;4.882;2022-07-23T04:36:30;12.70;;;12.20;;
26038;SDS011;13815;52.374;4.882;2022-07-23T04:38:55;12.93;;;12.32;;
26038;SDS011;13815;52.374;4.882;2022-07-23T04:41:21;13.70;;;13.02;;
26038;SDS011;13815;52.374;4.882;2022-07-23T04:43:46;13.82;;;13.23;;
26038;SDS011;13815;52.374;4.882;2022-07-23T04:46:12;12.90;;;12.40;;
26038;SDS011;13815;52.374;4.882;2022-07-23T04:48:37;12.35;;;11.85;;
26038;SDS011;13815;52.374;4.882;2022-07-23T04:51:03;12.25;;;11.70;;
26038;SDS011;13815;52.374;4.882;2022-07-23T04:53:28;12.20;;;11.70;;
26038;SDS011;13815;52.374;4.882;2022-07-23T04:55:54;13.65;;;12.90;;
26038;SDS011;13815;52.374;4.882;2022-07-23T04:58:19;13.70;;;13.10;;
26038;SDS011;13815;52.374;4.882;2022-07-23T05:00:45;13.90;;;13.30;;
26038;SDS011;13815;52.374;4.882;2022-07-23T05:03:11;14.48;;;13.70;;
26038;SDS011;13815;52.374;4.882;2022-07-23T05:05:36;14.23;;;13.63;;
26038;SDS011;13815;52.374;4.882;2022-07-23T05:08:02;14.70;;;13.98;;
26038;SDS011;13815;52.374;4.882;2022-07-23T05:10:27;16.10;;;15.10;;
26038;SDS011;13815;52.374;4.882;2022-07-23T05:12:53;14.50;;;13.85;;
26038;SDS011;13815;52.374;4.882;2022-07-23T05:15:18;14.18;;;13.57;;
26038;SDS011;13815;52.374;4.882;2022-07-23T05:17:43;15.48;;;14.50;;
26038;SDS011;13815;52.374;4.882;2022-07-23T05:20:09;15.50;;;14.63;;
26038;SDS011;13815;52.374;4.882;2022-07-23T05:22:35;15.88;;;14.98;;
26038;SDS011;13815;52.374;4.882;2022-07-23T05:25:00;17.00;;;15.80;;
26038;SDS011;13815;52.374;4.882;2022-07-23T05:27:25;16.45;;;15.45;;
26038;SDS011;13815;52.374;4.882;2022-07-23T05:29:51;16.38;;;15.38;;
26038;SDS011;13815;52.374;4.882;2022-07-23T05:32:16;17.48;;;16.27;;
26038;SDS011;13815;52.374;4.882;2022-07-23T05:34:41;17.13;;;16.00;;
26038;SDS011;13815;52.374;4.882;2022-07-23T05:37:07;17.30;;;16.10;;
26038;SDS011;13815;52.374;4.882;2022-07-23T05:39:32;17.20;;;16.00;;
26038;SDS011;13815;52.374;4.882;2022-07-23T05:41:57;17.30;;;16.10;;
26038;SDS011;13815;52.374;4.882;2022-07-23T05:44:23;18.17;;;16.88;;
26038;SDS011;13815;52.374;4.882;2022-07-23T05:46:48;18.67;;;17.17;;
26038;SDS011;13815;52.374;4.882;2022-07-23T05:49:14;18.33;;;17.02;;
26038;SDS011;13815;52.374;4.882;2022-07-23T05:51:39;18.60;;;17.23;;
26038;SDS011;13815;52.374;4.882;2022-07-23T05:54:07;18.52;;;17.13;;
26038;SDS011;13815;52.374;4.882;2022-07-23T05:56:32;18.58;;;17.17;;
26038;SDS011;13815;52.374;4.882;2022-07-23T05:58:58;18.38;;;16.95;;
26038;SDS011;13815;52.374;4.882;2022-07-23T06:01:23;17.05;;;15.90;;
26038;SDS011;13815;52.374;4.882;2022-07-23T06:03:48;16.85;;;15.70;;
26038;SDS011;13815;52.374;4.882;2022-07-23T06:06:14;16.95;;;15.85;;
26038;SDS011;13815;52.374;4.882;2022-07-23T06:08:39;17.40;;;16.20;;
26038;SDS011;13815;52.374;4.882;2022-07-23T06:11:04;17.80;;;16.42;;
26038;SDS011;13815;52.374;4.882;2022-07-23T06:13:30;18.02;;;16.70;;
26038;SDS011;13815;52.374;4.882;2022-07-23T06:15:55;18.30;;;17.00;;
26038;SDS011;13815;52.374;4.882;2022-07-23T06:18:20;18.05;;;16.85;;
26038;SDS011;13815;52.374;4.882;2022-07-23T06:20:46;19.10;;;17.50;;
26038;SDS011;13815;52.374;4.882;2022-07-23T06:23:11;18.75;;;17.35;;
26038;SDS011;13815;52.374;4.882;2022-07-23T06:25:37;20.38;;;18.67;;
26038;SDS011;13815;52.374;4.882;2022-07-23T06:28:03;21.42;;;19.05;;
26038;SDS011;13815;52.374;4.882;2022-07-23T06:30:28;21.05;;;19.33;;
26038;SDS011;13815;52.374;4.882;2022-07-23T06:32:54;21.70;;;19.80;;
26038;SDS011;13815;52.374;4.882;2022-07-23T06:35:19;22.98;;;20.73;;
26038;SDS011;13815;52.374;4.882;2022-07-23T06:37:44;21.38;;;19.42;;
26038;SDS011;13815;52.374;4.882;2022-07-23T06:40:10;20.83;;;19.10;;
26038;SDS011;13815;52.374;4.882;2022-07-23T06:42:36;22.67;;;20.42;;
26038;SDS011;13815;52.374;4.882;2022-07-23T06:45:03;22.20;;;20.20;;
26038;SDS011;13815;52.374;4.882;2022-07-23T06:47:29;20.35;;;18.65;;
26038;SDS011;13815;52.374;4.882;2022-07-23T06:49:55;20.50;;;18.80;;
26038;SDS011;13815;52.374;4.882;2022-07-23T06:52:20;21.08;;;19.27;;
26038;SDS011;13815;52.374;4.882;2022-07-23T06:54:45;21.08;;;19.30;;
26038;SDS011;13815;52.374;4.882;2022-07-23T06:57:11;20.60;;;18.90;;
26038;SDS011;13815;52.374;4.882;2022-07-23T06:59:36;21.27;;;19.38;;
26038;SDS011;13815;52.374;4.882;2022-07-23T07:02:05;22.80;;;20.55;;
26038;SDS011;13815;52.374;4.882;2022-07-23T07:04:31;21.85;;;19.95;;
26038;SDS011;13815;52.374;4.882;2022-07-23T07:06:57;20.55;;;18.85;;
26038;SDS011;13815;52.374;4.882;2022-07-23T07:09:23;22.75;;;20.60;;
26038;SDS011;13815;52.374;4.882;2022-07-23T07:11:48;22.80;;;20.60;;
26038;SDS011;13815;52.374;4.882;2022-07-23T07:14:14;21.58;;;19.58;;
26038;SDS011;13815;52.374;4.882;2022-07-23T07:16:39;22.90;;;20.58;;
26038;SDS011;13815;52.374;4.882;2022-07-23T07:19:05;22.05;;;19.95;;
26038;SDS011;13815;52.374;4.882;2022-07-23T07:21:30;22.05;;;19.90;;
26038;SDS011;13815;52.374;4.882;2022-07-23T07:23:55;21.30;;;19.30;;
26038;SDS011;13815;52.374;4.882;2022-07-23T07:26:21;22.20;;;20.00;;
26038;SDS011;13815;52.374;4.882;2022-07-23T07:28:46;20.65;;;18.75;;
26038;SDS011;13815;52.374;4.882;2022-07-23T07:31:12;21.88;;;19.67;;
26038;SDS011;13815;52.374;4.882;2022-07-23T07:33:37;21.38;;;19.27;;
26038;SDS011;13815;52.374;4.882;2022-07-23T07:36:03;20.35;;;18.65;;
26038;SDS011;13815;52.374;4.882;2022-07-23T07:38:29;20.73;;;18.83;;
26038;SDS011;13815;52.374;4.882;2022-07-23T07:40:54;20.17;;;18.38;;
26038;SDS011;13815;52.374;4.882;2022-07-23T07:43:19;19.88;;;18.17;;
26038;SDS011;13815;52.374;4.882;2022-07-23T07:45:45;20.77;;;18.88;;
26038;SDS011;13815;52.374;4.882;2022-07-23T07:48:10;20.05;;;18.25;;
26038;SDS011;13815;52.374;4.882;2022-07-23T07:50:35;22.17;;;19.98;;
26038;SDS011;13815;52.374;4.882;2022-07-23T07:53:01;21.20;;;19.10;;
26038;SDS011;13815;52.374;4.882;2022-07-23T07:55:26;20.88;;;18.88;;
26038;SDS011;13815;52.374;4.882;2022-07-23T07:57:53;21.10;;;19.00;;
26038;SDS011;13815;52.374;4.882;2022-07-23T08:00:18;21.10;;;19.10;;
26038;SDS011;13815;52.374;4.882;2022-07-23T08:02:45;23.35;;;21.15;;
26038;SDS011;13815;52.374;4.882;2022-07-23T08:05:12;24.35;;;22.02;;
26038;SDS011;13815;52.374;4.882;2022-07-23T08:07:38;23.00;;;20.85;;
26038;SDS011;13815;52.374;4.882;2022-07-23T08:10:06;22.75;;;20.65;;
26038;SDS011;13815;52.374;4.882;2022-07-23T08:12:42;22.13;;;20.13;;
26038;SDS011;13815;52.374;4.882;2022-07-23T08:15:12;22.65;;;20.50;;
26038;SDS011;13815;52.374;4.882;2022-07-23T08:17:38;22.45;;;20.25;;
26038;SDS011;13815;52.374;4.882;2022-07-23T08:20:04;22.58;;;20.38;;
26038;SDS011;13815;52.374;4.882;2022-07-23T08:25:12;23.35;;;21.05;;
26038;SDS011;13815;52.374;4.882;2022-07-23T08:27:38;23.98;;;21.58;;
26038;SDS011;13815;52.374;4.882;2022-07-23T08:30:04;25.15;;;22.55;;
26038;SDS011;13815;52.374;4.882;2022-07-23T08:32:33;24.30;;;21.80;;
26038;SDS011;13815;52.374;4.882;2022-07-23T08:34:58;25.63;;;22.92;;
26038;SDS011;13815;52.374;4.882;2022-07-23T08:37:23;23.33;;;20.98;;
26038;SDS011;13815;52.374;4.882;2022-07-23T08:39:49;23.80;;;21.30;;
26038;SDS011;13815;52.374;4.882;2022-07-23T08:42:14;23.88;;;21.48;;
26038;SDS011;13815;52.374;4.882;2022-07-23T08:44:44;23.38;;;21.08;;
26038;SDS011;13815;52.374;4.882;2022-07-23T08:47:10;23.23;;;21.02;;
26038;SDS011;13815;52.374;4.882;2022-07-23T08:49:37;23.70;;;21.40;;
26038;SDS011;13815;52.374;4.882;2022-07-23T08:52:03;23.45;;;21.13;;
26038;SDS011;13815;52.374;4.882;2022-07-23T08:54:30;25.58;;;22.70;;
26038;SDS011;13815;52.374;4.882;2022-07-23T08:56:56;24.88;;;22.23;;
26038;SDS011;13815;52.374;4.882;2022-07-23T08:59:22;23.30;;;20.90;;
26038;SDS011;13815;52.374;4.882;2022-07-23T09:01:47;24.42;;;21.13;;
26038;SDS011;13815;52.374;4.882;2022-07-23T09:04:13;24.95;;;21.52;;
26038;SDS011;13815;52.374;4.882;2022-07-23T09:06:38;24.27;;;21.60;;
26038;SDS011;13815;52.374;4.882;2022-07-23T09:09:16;23.95;;;21.25;;
26038;SDS011;13815;52.374;4.882;2022-07-23T09:11:48;26.55;;;22.45;;
26038;SDS011;13815;52.374;4.882;2022-07-23T09:14:39;26.25;;;21.52;;
26038;SDS011;13815;52.374;4.882;2022-07-23T09:17:12;26.95;;;22.33;;
26038;SDS011;13815;52.374;4.882;2022-07-23T09:19:40;25.40;;;21.48;;
26038;SDS011;13815;52.374;4.882;2022-07-23T09:22:19;27.63;;;22.15;;
26038;SDS011;13815;52.374;4.882;2022-07-23T09:27:49;27.63;;;22.23;;
26038;SDS011;13815;52.374;4.882;2022-07-23T09:30:17;26.55;;;21.80;;
26038;SDS011;13815;52.374;4.882;2022-07-23T09:32:43;25.90;;;21.98;;
26038;SDS011;13815;52.374;4.882;2022-07-23T09:35:09;27.95;;;22.25;;
26038;SDS011;13815;52.374;4.882;2022-07-23T09:37:34;28.60;;;22.40;;
26038;SDS011;13815;52.374;4.882;2022-07-23T09:40:09;30.02;;;22.83;;
26038;SDS011;13815;52.374;4.882;2022-07-23T09:42:38;29.70;;;23.23;;
26038;SDS011;13815;52.374;4.882;2022-07-23T09:45:03;31.75;;;23.90;;
26038;SDS011;13815;52.374;4.882;2022-07-23T09:47:30;31.40;;;23.42;;
26038;SDS011;13815;52.374;4.882;2022-07-23T09:50:06;31.48;;;23.80;;
26038;SDS011;13815;52.374;4.882;2022-07-23T09:55:17;30.15;;;23.08;;
26038;SDS011;13815;52.374;4.882;2022-07-23T09:57:44;32.42;;;23.65;;
26038;SDS011;13815;52.374;4.882;2022-07-23T10:00:14;33.40;;;24.65;;
26038;SDS011;13815;52.374;4.882;2022-07-23T10:02:40;33.05;;;24.30;;
26038;SDS011;13815;52.374;4.882;2022-07-23T10:05:10;33.53;;;23.73;;
26038;SDS011;13815;52.374;4.882;2022-07-23T10:07:37;31.70;;;23.20;;
26038;SDS011;13815;52.374;4.882;2022-07-23T10:10:03;30.92;;;22.63;;
26038;SDS011;13815;52.374;4.882;2022-07-23T10:12:29;31.35;;;23.20;;
26038;SDS011;13815;52.374;4.882;2022-07-23T10:15:07;31.00;;;23.08;;
26038;SDS011;13815;52.374;4.882;2022-07-23T10:17:33;30.60;;;22.60;;
26038;SDS011;13815;52.374;4.882;2022-07-23T10:20:00;32.28;;;23.35;;
26038;SDS011;13815;52.374;4.882;2022-07-23T10:22:26;33.28;;;23.92;;
26038;SDS011;13815;52.374;4.882;2022-07-23T10:25:06;33.47;;;23.70;;
26038;SDS011;13815;52.374;4.882;2022-07-23T10:37:57;32.67;;;23.70;;
26038;SDS011;13815;52.374;4.882;2022-07-23T10:40:27;35.20;;;25.60;;
26038;SDS011;13815;52.374;4.882;2022-07-23T10:42:58;34.75;;;25.27;;
26038;SDS011;13815;52.374;4.882;2022-07-23T10:45:32;33.33;;;24.85;;
26038;SDS011;13815;52.374;4.882;2022-07-23T10:51:07;33.60;;;24.52;;
26038;SDS011;13815;52.374;4.882;2022-07-23T11:01:46;32.50;;;23.97;;
26038;SDS011;13815;52.374;4.882;2022-07-23T11:04:11;32.13;;;23.77;;
26038;SDS011;13815;52.374;4.882;2022-07-23T11:09:25;34.20;;;25.20;;
26038;SDS011;13815;52.374;4.882;2022-07-23T11:17:22;32.45;;;24.20;;
26038;SDS011;13815;52.374;4.882;2022-07-23T11:22:36;33.83;;;24.83;;
26038;SDS011;13815;52.374;4.882;2022-07-23T11:25:02;35.13;;;25.05;;
26038;SDS011;13815;52.374;4.882;2022-07-23T11:27:41;34.65;;;25.73;;
26038;SDS011;13815;52.374;4.882;2022-07-23T11:30:08;34.15;;;25.00;;
26038;SDS011;13815;52.374;4.882;2022-07-23T11:32:39;33.47;;;25.00;;
26038;SDS011;13815;52.374;4.882;2022-07-23T11:35:21;34.25;;;25.50;;
26038;SDS011;13815;52.374;4.882;2022-07-23T11:37:48;33.40;;;25.13;;
26038;SDS011;13815;52.374;4.882;2022-07-23T11:40:16;34.30;;;25.77;;
26038;SDS011;13815;52.374;4.882;2022-07-23T11:42:52;34.05;;;25.70;;
26038;SDS011;13815;52.374;4.882;2022-07-23T11:45:21;33.67;;;25.33;;
26038;SDS011;13815;52.374;4.882;2022-07-23T11:47:48;33.58;;;25.75;;
26038;SDS011;13815;52.374;4.882;2022-07-23T11:50:13;33.08;;;25.15;;
26038;SDS011;13815;52.374;4.882;2022-07-23T11:52:38;34.15;;;26.25;;
26038;SDS011;13815;52.374;4.882;2022-07-23T11:55:08;33.25;;;25.17;;
26038;SDS011;13815;52.374;4.882;2022-07-23T11:57:36;33.75;;;25.73;;
26038;SDS011;13815;52.374;4.882;2022-07-23T12:02:36;34.13;;;25.60;;
26038;SDS011;13815;52.374;4.882;2022-07-23T12:05:03;34.88;;;25.35;;
26038;SDS011;13815;52.374;4.882;2022-07-23T12:09:54;34.40;;;25.67;;
26038;SDS011;13815;52.374;4.882;2022-07-23T12:12:21;33.90;;;25.55;;
26038;SDS011;13815;52.374;4.882;2022-07-23T12:14:57;33.90;;;25.40;;
26038;SDS011;13815;52.374;4.882;2022-07-23T12:17:42;33.83;;;25.20;;
26038;SDS011;13815;52.374;4.882;2022-07-23T12:20:12;33.28;;;25.02;;
26038;SDS011;13815;52.374;4.882;2022-07-23T12:22:39;32.75;;;25.23;;
26038;SDS011;13815;52.374;4.882;2022-07-23T12:25:07;32.63;;;24.70;;
26038;SDS011;13815;52.374;4.882;2022-07-23T12:27:37;33.75;;;25.13;;
26038;SDS011;13815;52.374;4.882;2022-07-23T12:30:21;35.38;;;26.30;;
26038;SDS011;13815;52.374;4.882;2022-07-23T12:32:49;34.55;;;26.80;;
26038;SDS011;13815;52.374;4.882;2022-07-23T12:35:17;35.50;;;26.80;;
26038;SDS011;13815;52.374;4.882;2022-07-23T12:37:44;33.08;;;25.85;;
26038;SDS011;13815;52.374;4.882;2022-07-23T12:45:28;34.67;;;25.98;;
26038;SDS011;13815;52.374;4.882;2022-07-23T12:48:07;35.33;;;26.00;;
26038;SDS011;13815;52.374;4.882;2022-07-23T12:53:15;35.25;;;26.50;;
26038;SDS011;13815;52.374;4.882;2022-07-23T12:55:42;36.45;;;26.48;;
26038;SDS011;13815;52.374;4.882;2022-07-23T12:58:10;35.95;;;26.70;;
26038;SDS011;13815;52.374;4.882;2022-07-23T13:05:57;36.85;;;27.17;;
26038;SDS011;13815;52.374;4.882;2022-07-23T13:08:23;37.38;;;27.80;;
26038;SDS011;13815;52.374;4.882;2022-07-23T13:10:49;36.15;;;26.77;;
26038;SDS011;13815;52.374;4.882;2022-07-23T13:13:16;36.38;;;26.73;;
26038;SDS011;13815;52.374;4.882;2022-07-23T13:15:44;36.30;;;26.30;;
26038;SDS011;13815;52.374;4.882;2022-07-23T13:18:09;37.03;;;26.15;;
26038;SDS011;13815;52.374;4.882;2022-07-23T13:20:34;36.22;;;26.35;;
26038;SDS011;13815;52.374;4.882;2022-07-23T13:23:00;34.50;;;25.98;;
26038;SDS011;13815;52.374;4.882;2022-07-23T13:25:26;34.35;;;25.65;;
26038;SDS011;13815;52.374;4.882;2022-07-23T13:27:51;35.90;;;26.25;;
26038;SDS011;13815;52.374;4.882;2022-07-23T13:30:17;35.22;;;26.48;;
26038;SDS011;13815;52.374;4.882;2022-07-23T13:32:42;35.28;;;26.45;;
26038;SDS011;13815;52.374;4.882;2022-07-23T13:35:08;35.20;;;26.95;;
26038;SDS011;13815;52.374;4.882;2022-07-23T13:37:34;34.65;;;26.48;;
26038;SDS011;13815;52.374;4.882;2022-07-23T13:39:59;35.17;;;26.55;;
26038;SDS011;13815;52.374;4.882;2022-07-23T13:42:24;34.55;;;25.75;;
26038;SDS011;13815;52.374;4.882;2022-07-23T13:44:50;34.55;;;26.05;;
26038;SDS011;13815;52.374;4.882;2022-07-23T13:47:15;35.03;;;26.20;;
26038;SDS011;13815;52.374;4.882;2022-07-23T13:49:40;35.38;;;26.58;;
26038;SDS011;13815;52.374;4.882;2022-07-23T13:52:06;34.90;;;26.23;;
26038;SDS011;13815;52.374;4.882;2022-07-23T13:54:31;35.08;;;26.60;;
26038;SDS011;13815;52.374;4.882;2022-07-23T13:56:56;35.60;;;26.40;;
26038;SDS011;13815;52.374;4.882;2022-07-23T13:59:22;36.33;;;26.70;;
26038;SDS011;13815;52.374;4.882;2022-07-23T14:01:47;37.22;;;27.20;;
26038;SDS011;13815;52.374;4.882;2022-07-23T14:04:13;37.30;;;26.95;;
26038;SDS011;13815;52.374;4.882;2022-07-23T14:06:38;37.05;;;27.25;;
26038;SDS011;13815;52.374;4.882;2022-07-23T14:09:04;36.35;;;27.15;;
26038;SDS011;13815;52.374;4.882;2022-07-23T14:11:29;38.00;;;27.73;;
26038;SDS011;13815;52.374;4.882;2022-07-23T14:13:55;37.30;;;27.60;;
26038;SDS011;13815;52.374;4.882;2022-07-23T14:16:21;37.22;;;27.48;;
26038;SDS011;13815;52.374;4.882;2022-07-23T14:18:47;36.80;;;27.25;;
26038;SDS011;13815;52.374;4.882;2022-07-23T14:21:12;36.25;;;26.33;;
26038;SDS011;13815;52.374;4.882;2022-07-23T14:23:37;35.30;;;26.30;;
26038;SDS011;13815;52.374;4.882;2022-07-23T14:26:03;35.88;;;26.65;;
26038;SDS011;13815;52.374;4.882;2022-07-23T14:28:28;36.78;;;27.38;;
26038;SDS011;13815;52.374;4.882;2022-07-23T14:30:54;36.38;;;27.05;;
26038;SDS011;13815;52.374;4.882;2022-07-23T14:33:19;37.00;;;28.05;;
26038;SDS011;13815;52.374;4.882;2022-07-23T14:35:45;35.58;;;27.40;;
26038;SDS011;13815;52.374;4.882;2022-07-23T14:38:11;35.40;;;26.95;;
26038;SDS011;13815;52.374;4.882;2022-07-23T14:40:36;35.25;;;27.00;;
26038;SDS011;13815;52.374;4.882;2022-07-23T14:43:02;34.97;;;26.88;;
26038;SDS011;13815;52.374;4.882;2022-07-23T14:45:27;36.17;;;27.20;;
26038;SDS011;13815;52.374;4.882;2022-07-23T14:47:54;36.08;;;27.00;;
26038;SDS011;13815;52.374;4.882;2022-07-23T14:50:20;36.17;;;26.90;;
26038;SDS011;13815;52.374;4.882;2022-07-23T14:52:46;35.92;;;26.75;;
26038;SDS011;13815;52.374;4.882;2022-07-23T14:55:11;35.80;;;26.42;;
26038;SDS011;13815;52.374;4.882;2022-07-23T14:57:36;35.72;;;26.13;;
26038;SDS011;13815;52.374;4.882;2022-07-23T15:00:03;38.53;;;27.75;;
26038;SDS011;13815;52.374;4.882;2022-07-23T15:02:30;40.05;;;29.35;;
26038;SDS011;13815;52.374;4.882;2022-07-23T15:04:55;39.90;;;28.88;;
26038;SDS011;13815;52.374;4.882;2022-07-23T15:07:23;38.15;;;27.35;;
26038;SDS011;13815;52.374;4.882;2022-07-23T15:09:48;37.75;;;27.08;;
26038;SDS011;13815;52.374;4.882;2022-07-23T15:12:13;37.85;;;26.80;;
26038;SDS011;13815;52.374;4.882;2022-07-23T15:14:39;38.42;;;26.95;;
26038;SDS011;13815;52.374;4.882;2022-07-23T15:17:04;38.00;;;27.55;;